sensor_id;sensor_type;location;lat;lon;timestamp;pressure;altitude;pressure_sealevel;temperature;humidity
73105;BME280;61296;50.526;30.792;2024-03-08T00:04:30;100219.16;;;-3.63;92.81
73105;BME280;61296;50.526;30.792;2024-03-08T00:20:04;100203.81;;;-3.72;93.17
73105;BME280;61296;50.526;30.792;2024-03-08T00:35:37;100180.66;;;-3.79;93.52
73105;BME280;61296;50.526;30.792;2024-03-08T00:51:10;100171.53;;;-3.83;93.89
73105;BME280;61296;50.526;30.792;2024-03-08T01:06:43;100186.88;;;-3.68;94.46
73105;BME280;61296;50.526;30.792;2024-03-08T01:22:19;100180.66;;;-3.79;94.73
73105;BME280;61296;50.526;30.792;2024-03-08T01:37:51;100168.84;;;-3.83;95.17
73105;BME280;61296;50.526;30.792;2024-03-08T01:53:26;100165.03;;;-3.97;95.36
73105;BME280;61296;50.526;30.792;2024-03-08T02:08:59;100145.88;;;-4.21;95.87
73105;BME280;61296;50.526;30.792;2024-03-08T02:24:32;100148.25;;;-4.34;97.34
73105;BME280;61296;50.526;30.792;2024-03-08T02:40:06;100010.47;;;-5.13;98.38
73105;BME280;61296;50.526;30.792;2024-03-08T02:55:41;100121.09;;;-4.38;99.26
73105;BME280;61296;50.526;30.792;2024-03-08T03:11:14;100074.81;;;-4.66;99.12
73105;BME280;61296;50.526;30.792;2024-03-08T03:26:47;100097.47;;;-4.41;98.47
73105;BME280;61296;50.526;30.792;2024-03-08T03:42:22;100093.66;;;-4.55;98.76
73105;BME280;61296;50.526;30.792;2024-03-08T03:57:57;100061.91;;;-4.74;98.86
73105;BME280;61296;50.526;30.792;2024-03-08T04:13:31;100067.84;;;-4.61;98.64
73105;BME280;61296;50.526;30.792;2024-03-08T04:29:04;100080.28;;;-4.45;98.60
73105;BME280;61296;50.526;30.792;2024-03-08T04:44:38;100061.78;;;-4.37;98.43
73105;BME280;61296;50.526;30.792;2024-03-08T05:00:13;100044.91;;;-4.22;97.88
73105;BME280;61296;50.526;30.792;2024-03-08T05:15:50;100064.59;;;-3.40;96.80
73105;BME280;61296;50.526;30.792;2024-03-08T05:31:24;100068.38;;;-2.46;92.51
73105;BME280;61296;50.526;30.792;2024-03-08T05:46:57;100078.44;;;-1.68;87.76
73105;BME280;61296;50.526;30.792;2024-03-08T06:02:30;100009.41;;;-1.69;86.01
73105;BME280;61296;50.526;30.792;2024-03-08T06:18:02;100061.63;;;-0.97;84.74
73105;BME280;61296;50.526;30.792;2024-03-08T06:33:38;100064.72;;;-0.37;83.94
73105;BME280;61296;50.526;30.792;2024-03-08T06:49:11;100051.66;;;0.08;82.14
73105;BME280;61296;50.526;30.792;2024-03-08T07:04:44;99997.81;;;0.12;80.17
73105;BME280;61296;50.526;30.792;2024-03-08T07:20:17;99914.59;;;0.22;75.00
73105;BME280;61296;50.526;30.792;2024-03-08T07:35:52;99998.13;;;1.17;71.98
73105;BME280;61296;50.526;30.792;2024-03-08T07:51:26;100041.09;;;2.45;66.78
73105;BME280;61296;50.526;30.792;2024-03-08T08:06:59;100029.53;;;2.84;62.97
73105;BME280;61296;50.526;30.792;2024-03-08T08:22:33;99918.13;;;2.76;55.70
73105;BME280;61296;50.526;30.792;2024-03-08T08:38:09;99958.25;;;3.27;55.14
73105;BME280;61296;50.526;30.792;2024-03-08T08:53:42;99999.38;;;3.34;53.44
73105;BME280;61296;50.526;30.792;2024-03-08T09:09:16;99916.66;;;3.27;52.10
73105;BME280;61296;50.526;30.792;2024-03-08T09:24:50;99918.09;;;3.15;53.60
73105;BME280;61296;50.526;30.792;2024-03-08T09:40:24;99947.06;;;3.29;52.86
73105;BME280;61296;50.526;30.792;2024-03-08T09:56:00;99957.03;;;3.76;51.83
73105;BME280;61296;50.526;30.792;2024-03-08T10:11:37;99903.75;;;3.67;49.95
73105;BME280;61296;50.526;30.792;2024-03-08T10:27:11;99939.03;;;4.36;48.73
73105;BME280;61296;50.526;30.792;2024-03-08T10:42:52;99883.66;;;4.32;46.20
73105;BME280;61296;50.526;30.792;2024-03-08T10:58:27;99906.59;;;4.69;45.11
73105;BME280;61296;50.526;30.792;2024-03-08T11:14:03;99826.09;;;4.42;47.04
73105;BME280;61296;50.526;30.792;2024-03-08T11:29:39;99799.44;;;4.56;45.57
73105;BME280;61296;50.526;30.792;2024-03-08T11:45:17;99797.38;;;4.83;42.58
73105;BME280;61296;50.526;30.792;2024-03-08T12:00:50;99826.25;;;5.26;41.66
73105;BME280;61296;50.526;30.792;2024-03-08T12:16:24;99709.97;;;4.67;40.69
73105;BME280;61296;50.526;30.792;2024-03-08T12:32:01;99796.03;;;5.51;41.14
73105;BME280;61296;50.526;30.792;2024-03-08T12:47:35;99786.72;;;5.53;40.64
73105;BME280;61296;50.526;30.792;2024-03-08T13:03:09;99744.75;;;5.45;41.54
73105;BME280;61296;50.526;30.792;2024-03-08T13:18:45;99755.97;;;5.64;41.83
73105;BME280;61296;50.526;30.792;2024-03-08T13:34:22;99742.13;;;5.82;41.90
73105;BME280;61296;50.526;30.792;2024-03-08T13:50:00;99727.91;;;5.88;41.31
73105;BME280;61296;50.526;30.792;2024-03-08T14:05:33;99720.22;;;5.90;40.97
73105;BME280;61296;50.526;30.792;2024-03-08T14:21:09;99670.69;;;5.79;40.95
73105;BME280;61296;50.526;30.792;2024-03-08T14:36:43;99700.56;;;5.97;41.19
73105;BME280;61296;50.526;30.792;2024-03-08T14:52:17;99674.47;;;5.87;41.49
73105;BME280;61296;50.526;30.792;2024-03-08T15:08:02;99657.50;;;5.82;41.54
73105;BME280;61296;50.526;30.792;2024-03-08T15:23:42;99622.47;;;5.47;41.27
73105;BME280;61296;50.526;30.792;2024-03-08T15:39:19;99674.09;;;5.64;41.92
73105;BME280;61296;50.526;30.792;2024-03-08T15:54:53;99640.72;;;5.22;42.03
73105;BME280;61296;50.526;30.792;2024-03-08T16:10:26;99666.81;;;5.11;42.65
73105;BME280;61296;50.526;30.792;2024-03-08T16:26:01;99655.97;;;4.48;43.51
73105;BME280;61296;50.526;30.792;2024-03-08T16:41:34;99593.97;;;3.74;44.26
73105;BME280;61296;50.526;30.792;2024-03-08T16:57:08;99682.16;;;4.02;45.12
73105;BME280;61296;50.526;30.792;2024-03-08T17:12:46;99583.63;;;3.21;46.51
73105;BME280;61296;50.526;30.792;2024-03-08T17:28:22;99645.47;;;3.32;48.46
73105;BME280;61296;50.526;30.792;2024-03-08T17:43:55;99662.44;;;3.29;48.87
73105;BME280;61296;50.526;30.792;2024-03-08T17:59:28;99573.22;;;2.50;49.77
73105;BME280;61296;50.526;30.792;2024-03-08T18:15:02;99662.97;;;2.79;50.68
73105;BME280;61296;50.526;30.792;2024-03-08T18:30:39;99666.97;;;2.65;51.37
73105;BME280;61296;50.526;30.792;2024-03-08T18:46:13;99594.44;;;1.96;52.35
73105;BME280;61296;50.526;30.792;2024-03-08T19:01:46;99626.34;;;2.08;52.84
73105;BME280;61296;50.526;30.792;2024-03-08T19:17:20;99635.31;;;2.17;53.40
73105;BME280;61296;50.526;30.792;2024-03-08T19:33:01;99641.88;;;2.24;53.36
73105;BME280;61296;50.526;30.792;2024-03-08T19:48:34;99627.78;;;1.96;53.84
73105;BME280;61296;50.526;30.792;2024-03-08T20:04:01;99640.75;;;3.03;94.65
73105;BME280;61296;50.526;30.792;2024-03-08T20:19:34;99632.13;;;3.57;87.68
73105;BME280;61296;50.526;30.792;2024-03-08T20:35:09;99608.03;;;2.39;60.04
73105;BME280;61296;50.526;30.792;2024-03-08T20:50:43;99630.94;;;1.81;59.16
73105;BME280;61296;50.526;30.792;2024-03-08T21:06:16;99602.34;;;1.27;59.86
73105;BME280;61296;50.526;30.792;2024-03-08T21:21:50;99543.47;;;0.79;61.14
73105;BME280;61296;50.526;30.792;2024-03-08T21:37:23;99601.88;;;1.02;62.54
73105;BME280;61296;50.526;30.792;2024-03-08T21:52:56;99546.81;;;0.53;63.12
73105;BME280;61296;50.526;30.792;2024-03-08T22:08:32;99556.84;;;0.53;63.94
73105;BME280;61296;50.526;30.792;2024-03-08T22:24:06;99593.38;;;0.64;64.18
73105;BME280;61296;50.526;30.792;2024-03-08T22:39:40;99584.88;;;0.57;65.17
73105;BME280;61296;50.526;30.792;2024-03-08T22:55:14;99595.72;;;0.57;65.60
73105;BME280;61296;50.526;30.792;2024-03-08T23:10:51;99586.31;;;0.54;65.69
73105;BME280;61296;50.526;30.792;2024-03-08T23:26:24;99580.97;;;0.63;66.29
73105;BME280;61296;50.526;30.792;2024-03-08T23:41:59;99580.56;;;0.78;66.75
73105;BME280;61296;50.526;30.792;2024-03-08T23:57:32;99558.47;;;0.85;66.60
